Aérodrome :
LOGIN :

S'inscrire | Disclaimer

   EN    FR    IT 

 










Légende :    VFR   VFR Marginal   IFR   IFR Intensif   IFR Très Intensif
Visi : 
Plafond : 
>= 8 km
>= 3000ft
5 à 8 km
1000 à 3000 ft
1500m à 5 km
500 à 1000 ft
800 à 1500m
200 à 500 ft
< 800m
< 200 ft
Symboles :   Orages  Brouillard  Fortes neiges  Fortes précipitations  Vent > 20 kt
SIGMETs :   Divers  Orages  Givrage  Turbulence  Onde Orograph.  Cendres Volcan.







- Altitude de l'aérodrome : 3368 ft


LSGC - Les Eplatures

DERNIER METAR :
  • 201550Z 08007KT 040V170 CAVOK 17/M06 Q1024

METARs EXPIRÉS :
  • 201520Z 06007KT 030V120 CAVOK 18/M05 Q1024
  • 201450Z 10006KT 040V130 CAVOK 18/M05 Q1024
  • 201420Z 08006KT 020V150 CAVOK 18/M08 Q1025
  • 201350Z 08006KT 030V160 CAVOK 18/M10 Q1025
  • 201320Z 07007KT 040V150 CAVOK 18/M07 Q1025

TAF TAF LSGC
Valide du 20 à 15h jusqu'au 21 à 00h UTC


201425Z 2015/2024 07005KT CAVOK
Pas de NOTAMs connus pour ce terrain.



MET'MAP, la Météo Aéronautique d'un coup d'oeil ! - Copyright ORBIFLY Décembre 2007 - Disclaimer

ORBIFLY MET'MAP TEAM :

Programmation & Développement : Alexandra Zaïnal
Conception & Développement : Baudouin d'Aumeries
Co-Programmation & Développement : Marc-Olivier Méhu
Soutien technique & logistique : Manuel Goepfert

Contact : metmap@orbifly.com




SOURCES & CREDITS :

   NOAA